Jj Sky — VRJA6 — position and weather

sailwx.info

Track history (hours):
 
Tides and Currents Weather Stations Pressure Air Temp Water Temp Dewpoint Dewpoint Depression Visibility Wind Speed Wind Dir Waves Ship Positions

Jj Sky

Last reported at 2015-Mar-30 15:32 UTC. Time now 2015-Mar-30 16:15 UTC.
Position N 34°39' E 135°24'.

Length 148 m; draft 7 m.

Type: Ship. MMSI: 477397500.

Date/timePositionNaut miles runAvg speedWind from/ knotsBaromVisibWave heightAir tempDewpointWater temp
2015-Mar-30 15:32N 34°39' E 135°24'0 0.1
2015-Mar-30 14:19N 34°39' E 135°24'0 0.0
2015-Mar-30 13:31N 34°39' E 135°24'0 0.0
2015-Mar-30 12:30N 34°39' E 135°24'0 0.0
2015-Mar-30 11:30N 34°39' E 135°24'0 0.0
2015-Mar-30 10:30N 34°39' E 135°24'0 0.0
2015-Mar-30 09:30N 34°39' E 135°24'0 0.0
2015-Mar-30 08:30N 34°39' E 135°24'0 0.0
2015-Mar-30 06:22N 34°39' E 135°24'0 0.0
2015-Mar-30 05:28N 34°39' E 135°24'0 0.0
2015-Mar-30 04:30N 34°39' E 135°24'0 0.0
2015-Mar-30 03:17N 34°39' E 135°24'0 0.0
2015-Mar-30 02:17N 34°39' E 135°24'0 0.0
2015-Mar-30 01:30N 34°39' E 135°24'0 0.0
2015-Mar-30 00:17N 34°39' E 135°24'0 0.0
2015-Mar-29 23:11N 34°39' E 135°24'37 9.2
2015-Mar-29 19:06N 34°10' E 134°57'64414.4
2015-Mar-27 22:25N 30°58' E 122°47'1315.0
2015-Mar-27 21:33N 30°59' E 122°32'1615.8
2015-Mar-27 20:33N 31°02' E 122°14'1212.4
2015-Mar-27 19:33N 31°05' E 122°00'1312.8
2015-Mar-27 18:33N 31°13' E 121°48'10 9.0
2015-Mar-27 17:28N 31°20' E 121°40'0 0.1
2015-Mar-27 16:33N 31°20' E 121°40'0 0.1
2015-Mar-27 15:29N 31°20' E 121°40'0 0.0
2015-Mar-27 14:32N 31°20' E 121°40'0 0.1
2015-Mar-27 13:33N 31°20' E 121°40'0 0.0
2015-Mar-27 12:28N 31°20' E 121°40'0 0.0
2015-Mar-27 11:28N 31°20' E 121°40'0 0.1
2015-Mar-27 10:33N 31°20' E 121°40'0 0.1
2015-Mar-27 09:33N 31°20' E 121°40'0 0.1
2015-Mar-27 08:34N 31°20' E 121°40'6 6.4
2015-Mar-27 07:33N 31°18' E 121°47'9 9.2
2015-Mar-27 06:34N 31°15' E 121°57'9 8.9
2015-Mar-27 05:34N 31°13' E 122°07'10 9.5
2015-Mar-27 04:33N 31°07' E 122°17'9 9.1
2015-Mar-27 03:33N 31°07' E 122°27'  
2015-Mar-24 08:26N 33°55' E 134°55'1517.8
2015-Mar-24 07:34N 34°11' E 134°58'1918.5
2015-Mar-24 06:33N 34°28' E 135°05'1413.7
2015-Mar-24 05:33N 34°40' E 135°14'0 0.1
2015-Mar-24 04:33N 34°40' E 135°14'0 0.0
2015-Mar-24 03:24N 34°40' E 135°14'0 0.1
2015-Mar-24 02:23N 34°39' E 135°14'0 0.1
2015-Mar-24 01:29N 34°40' E 135°14'0 0.0
2015-Mar-24 00:16N 34°40' E 135°14'3 3.8
2015-Mar-23 23:33N 34°38' E 135°17'2 1.6
2015-Mar-23 22:33N 34°37' E 135°19'5 4.6
2015-Mar-23 21:32N 34°39' E 135°24'0 0.1
2015-Mar-23 20:25N 34°39' E 135°24'0 0.0
2015-Mar-23 19:24N 34°39' E 135°24'0 0.0
2015-Mar-23 18:30N 34°39' E 135°24'0 0.0
2015-Mar-23 17:23N 34°39' E 135°24'0 0.1
2015-Mar-23 16:23N 34°39' E 135°24'0 0.1
2015-Mar-23 15:29N 34°39' E 135°24'0 0.0
2015-Mar-23 14:28N 34°39' E 135°24'0 0.0
2015-Mar-23 13:28N 34°39' E 135°24'0 0.0
2015-Mar-23 12:33N 34°39' E 135°24'0 0.1
2015-Mar-23 11:33N 34°39' E 135°24'0 0.0
2015-Mar-23 10:08N 34°39' E 135°24'0 0.1
2015-Mar-23 09:32N 34°39' E 135°24'0 0.0
2015-Mar-23 08:20N 34°39' E 135°24'0 0.0
2015-Mar-23 07:31N 34°39' E 135°24'0 0.0
2015-Mar-23 06:19N 34°39' E 135°24'0 0.1
2015-Mar-23 05:30N 34°39' E 135°24'0 0.0
2015-Mar-23 04:30N 34°39' E 135°24'0 0.0
2015-Mar-23 02:29N 34°39' E 135°24'0 0.0
2015-Mar-23 01:32N 34°39' E 135°24'7 7.1
2015-Mar-23 00:33N 34°34' E 135°18'1817.6
2015-Mar-22 23:33N 34°21' E 135°03'1717.5
2015-Mar-22 22:34N 34°05' E 134°56'62616.8
2015-Mar-21 09:24N 31°05' E 123°05'1618.7
2015-Mar-21 08:33N 31°05' E 122°46'1817.9
2015-Mar-21 07:33N 31°05' E 122°25'1413.9
2015-Mar-21 06:33N 31°11' E 122°10'1414.2
2015-Mar-21 05:33N 31°16' E 121°55'1111.4
2015-Mar-21 04:33N 31°20' E 121°42'2 1.7
2015-Mar-21 03:33N 31°20' E 121°40'0 0.1
2015-Mar-21 02:31N 31°20' E 121°40'0 0.0
2015-Mar-21 01:31N 31°20' E 121°40'0 0.0
2015-Mar-21 00:25N 31°20' E 121°40'0 0.0
2015-Mar-20 23:27N 31°20' E 121°40'0 0.1
2015-Mar-20 22:33N 31°20' E 121°40'0 0.1
2015-Mar-20 21:32N 31°20' E 121°40'0 0.1
2015-Mar-20 20:31N 31°20' E 121°40'0 0.0
2015-Mar-20 19:32N 31°20' E 121°40'0 0.1
2015-Mar-20 18:33N 31°20' E 121°40'0 0.0
2015-Mar-20 17:33N 31°20' E 121°40'0 0.1
2015-Mar-20 16:33N 31°20' E 121°40'4 3.6
2015-Mar-20 15:33N 31°19' E 121°44'  
Track history (hours):
 
Tides and Currents Weather Stations Pressure Air Temp Water Temp Dewpoint Dewpoint Depression Visibility Wind Speed Wind Dir Waves Ship Positions

Jj Sky

Last reported at 2015-Mar-30 15:32 UTC. Time now 2015-Mar-30 16:15 UTC.
Position N 34°39' E 135°24'.

Length 148 m; draft 7 m.

Type: Ship. MMSI: 477397500.

Date/timePositionNaut miles runAvg speedWind from/ knotsBaromVisibWave heightAir tempDewpointWater temp
2015-Mar-30 15:32N 34°39' E 135°24'0 0.1
2015-Mar-30 14:19N 34°39' E 135°24'0 0.0
2015-Mar-30 13:31N 34°39' E 135°24'0 0.0
2015-Mar-30 12:30N 34°39' E 135°24'0 0.0
2015-Mar-30 11:30N 34°39' E 135°24'0 0.0
2015-Mar-30 10:30N 34°39' E 135°24'0 0.0
2015-Mar-30 09:30N 34°39' E 135°24'0 0.0
2015-Mar-30 08:30N 34°39' E 135°24'0 0.0
2015-Mar-30 06:22N 34°39' E 135°24'0 0.0
2015-Mar-30 05:28N 34°39' E 135°24'0 0.0
2015-Mar-30 04:30N 34°39' E 135°24'0 0.0
2015-Mar-30 03:17N 34°39' E 135°24'0 0.0
2015-Mar-30 02:17N 34°39' E 135°24'0 0.0
2015-Mar-30 01:30N 34°39' E 135°24'0 0.0
2015-Mar-30 00:17N 34°39' E 135°24'0 0.0
2015-Mar-29 23:11N 34°39' E 135°24'37 9.2
2015-Mar-29 19:06N 34°10' E 134°57'64414.4
2015-Mar-27 22:25N 30°58' E 122°47'1315.0
2015-Mar-27 21:33N 30°59' E 122°32'1615.8
2015-Mar-27 20:33N 31°02' E 122°14'1212.4
2015-Mar-27 19:33N 31°05' E 122°00'1312.8
2015-Mar-27 18:33N 31°13' E 121°48'10 9.0
2015-Mar-27 17:28N 31°20' E 121°40'0 0.1
2015-Mar-27 16:33N 31°20' E 121°40'0 0.1
2015-Mar-27 15:29N 31°20' E 121°40'0 0.0
2015-Mar-27 14:32N 31°20' E 121°40'0 0.1
2015-Mar-27 13:33N 31°20' E 121°40'0 0.0
2015-Mar-27 12:28N 31°20' E 121°40'0 0.0
2015-Mar-27 11:28N 31°20' E 121°40'0 0.1
2015-Mar-27 10:33N 31°20' E 121°40'0 0.1
2015-Mar-27 09:33N 31°20' E 121°40'0 0.1
2015-Mar-27 08:34N 31°20' E 121°40'6 6.4
2015-Mar-27 07:33N 31°18' E 121°47'9 9.2
2015-Mar-27 06:34N 31°15' E 121°57'9 8.9
2015-Mar-27 05:34N 31°13' E 122°07'10 9.5
2015-Mar-27 04:33N 31°07' E 122°17'9 9.1
2015-Mar-27 03:33N 31°07' E 122°27'  
2015-Mar-24 08:26N 33°55' E 134°55'1517.8
2015-Mar-24 07:34N 34°11' E 134°58'1918.5
2015-Mar-24 06:33N 34°28' E 135°05'1413.7
2015-Mar-24 05:33N 34°40' E 135°14'0 0.1
2015-Mar-24 04:33N 34°40' E 135°14'0 0.0
2015-Mar-24 03:24N 34°40' E 135°14'0 0.1
2015-Mar-24 02:23N 34°39' E 135°14'0 0.1
2015-Mar-24 01:29N 34°40' E 135°14'0 0.0
2015-Mar-24 00:16N 34°40' E 135°14'3 3.8
2015-Mar-23 23:33N 34°38' E 135°17'2 1.6
2015-Mar-23 22:33N 34°37' E 135°19'5 4.6
2015-Mar-23 21:32N 34°39' E 135°24'0 0.1
2015-Mar-23 20:25N 34°39' E 135°24'0 0.0
2015-Mar-23 19:24N 34°39' E 135°24'0 0.0
2015-Mar-23 18:30N 34°39' E 135°24'0 0.0
2015-Mar-23 17:23N 34°39' E 135°24'0 0.1
2015-Mar-23 16:23N 34°39' E 135°24'0 0.1
2015-Mar-23 15:29N 34°39' E 135°24'0 0.0
2015-Mar-23 14:28N 34°39' E 135°24'0 0.0
2015-Mar-23 13:28N 34°39' E 135°24'0 0.0
2015-Mar-23 12:33N 34°39' E 135°24'0 0.1
2015-Mar-23 11:33N 34°39' E 135°24'0 0.0
2015-Mar-23 10:08N 34°39' E 135°24'0 0.1
2015-Mar-23 09:32N 34°39' E 135°24'0 0.0
2015-Mar-23 08:20N 34°39' E 135°24'0 0.0
2015-Mar-23 07:31N 34°39' E 135°24'0 0.0
2015-Mar-23 06:19N 34°39' E 135°24'0 0.1
2015-Mar-23 05:30N 34°39' E 135°24'0 0.0
2015-Mar-23 04:30N 34°39' E 135°24'0 0.0
2015-Mar-23 02:29N 34°39' E 135°24'0 0.0
2015-Mar-23 01:32N 34°39' E 135°24'7 7.1
2015-Mar-23 00:33N 34°34' E 135°18'1817.6
2015-Mar-22 23:33N 34°21' E 135°03'1717.5
2015-Mar-22 22:34N 34°05' E 134°56'62616.8
2015-Mar-21 09:24N 31°05' E 123°05'1618.7
2015-Mar-21 08:33N 31°05' E 122°46'1817.9
2015-Mar-21 07:33N 31°05' E 122°25'1413.9
2015-Mar-21 06:33N 31°11' E 122°10'1414.2
2015-Mar-21 05:33N 31°16' E 121°55'1111.4
2015-Mar-21 04:33N 31°20' E 121°42'2 1.7
2015-Mar-21 03:33N 31°20' E 121°40'0 0.1
2015-Mar-21 02:31N 31°20' E 121°40'0 0.0
2015-Mar-21 01:31N 31°20' E 121°40'0 0.0
2015-Mar-21 00:25N 31°20' E 121°40'0 0.0
2015-Mar-20 23:27N 31°20' E 121°40'0 0.1
2015-Mar-20 22:33N 31°20' E 121°40'0 0.1
2015-Mar-20 21:32N 31°20' E 121°40'0 0.1
2015-Mar-20 20:31N 31°20' E 121°40'0 0.0
2015-Mar-20 19:32N 31°20' E 121°40'0 0.1
2015-Mar-20 18:33N 31°20' E 121°40'0 0.0
2015-Mar-20 17:33N 31°20' E 121°40'0 0.1
2015-Mar-20 16:33N 31°20' E 121°40'4 3.6
2015-Mar-20 15:33N 31°19' E 121°44'  

Dump ship's entire track history